Time;durP1;ratioP1;P1;durP2;ratioP2;P2;SDS_P1;SDS_P2;PMS_P1;PMS_P2;Temp;Humidity;BMP_temperature;BMP_pressure;BME280_temperature;BME280_humidity;BME280_pressure;Samples;Min_cycle;Max_cycle;Signal;HPM_P1;HPM_P2
2021/08/31 00:00:13;;;;;;;13.40;6.45;;;17.40;94.30;;;;;;5052430;28;20459;-75
2021/08/31 00:02:39;;;;;;;11.38;5.65;;;17.30;94.30;;;;;;5053822;28;20032;-77
2021/08/31 00:05:05;;;;;;;10.63;6.55;;;17.30;94.40;;;;;;5053149;28;20381;-74
2021/08/31 00:07:31;;;;;;;11.07;6.55;;;17.30;94.40;;;;;;5052520;28;20369;-75
2021/08/31 00:09:57;;;;;;;12.45;6.32;;;17.40;94.50;;;;;;5051474;28;20035;-75
2021/08/31 00:12:22;;;;;;;13.00;6.60;;;17.40;94.50;;;;;;5053635;28;20017;-76
2021/08/31 00:14:48;;;;;;;10.38;5.82;;;17.30;94.50;;;;;;5051618;28;20014;-76
2021/08/31 00:17:16;;;;;;;11.25;5.55;;;17.30;94.50;;;;;;5053587;28;20441;-76
2021/08/31 00:19:43;;;;;;;12.00;6.60;;;17.30;94.50;;;;;;5053509;28;20075;-76
2021/08/31 00:22:09;;;;;;;10.90;6.10;;;17.30;94.50;;;;;;5051553;28;20029;-75
2021/08/31 00:24:35;;;;;;;13.25;7.45;;;17.30;94.50;;;;;;5053374;28;20453;-76
2021/08/31 00:27:00;;;;;;;11.80;6.88;;;17.30;94.60;;;;;;5052817;28;20021;-76
2021/08/31 00:29:26;;;;;;;12.02;6.78;;;17.30;94.60;;;;;;5052997;28;20021;-75
2021/08/31 00:31:52;;;;;;;13.20;7.65;;;17.30;94.60;;;;;;5052697;28;20029;-76
2021/08/31 00:34:17;;;;;;;13.55;6.25;;;17.20;94.60;;;;;;5052891;28;20017;-75
2021/08/31 00:36:44;;;;;;;11.50;6.40;;;17.30;94.70;;;;;;5053205;28;20032;-75
2021/08/31 00:39:10;;;;;;;14.43;6.72;;;17.20;94.70;;;;;;5052835;28;20025;-76
2021/08/31 00:41:36;;;;;;;10.43;5.82;;;17.20;94.70;;;;;;5051372;28;20132;-76
2021/08/31 00:44:03;;;;;;;11.40;5.75;;;17.20;94.80;;;;;;5050816;28;20031;-76
2021/08/31 00:46:28;;;;;;;11.75;5.88;;;17.20;94.80;;;;;;5052939;28;20021;-75
2021/08/31 00:48:55;;;;;;;11.43;5.97;;;17.20;94.80;;;;;;5052637;28;20032;-75
2021/08/31 00:51:24;;;;;;;11.93;6.20;;;17.20;94.80;;;;;;5051637;28;20028;-75
2021/08/31 00:53:52;;;;;;;11.45;6.68;;;17.20;94.80;;;;;;5050569;28;20407;-77
2021/08/31 00:56:20;;;;;;;8.07;4.53;;;17.20;94.80;;;;;;5052495;28;20071;-76
2021/08/31 00:58:46;;;;;;;12.93;7.07;;;17.20;94.80;;;;;;5051845;28;20013;-76
2021/08/31 01:01:12;;;;;;;11.55;6.57;;;17.20;94.80;;;;;;5052463;28;20041;-75
2021/08/31 01:03:39;;;;;;;10.35;5.22;;;17.20;94.90;;;;;;5052511;28;20025;-76
2021/08/31 01:06:06;;;;;;;12.00;6.53;;;17.10;94.80;;;;;;5052001;28;20540;-76
2021/08/31 01:08:32;;;;;;;11.77;6.18;;;17.20;94.90;;;;;;5052508;28;20029;-76
2021/08/31 01:10:59;;;;;;;11.00;6.32;;;17.10;94.90;;;;;;5050579;28;20049;-76
2021/08/31 01:13:26;;;;;;;12.10;6.72;;;17.10;94.90;;;;;;5052458;28;20362;-76
2021/08/31 01:15:51;;;;;;;12.88;6.95;;;17.10;94.90;;;;;;5051871;28;20069;-76
2021/08/31 01:18:22;;;;;;;12.35;6.10;;;17.10;94.90;;;;;;5052343;28;20423;-77
2021/08/31 01:20:56;;;;;;;12.48;6.47;;;17.10;95.00;;;;;;5050331;28;20472;-76
2021/08/31 01:23:23;;;;;;;14.50;7.30;;;17.10;95.00;;;;;;5052587;28;20033;-76
2021/08/31 01:25:49;;;;;;;12.93;6.43;;;17.10;94.90;;;;;;5051792;28;20067;-76
2021/08/31 01:28:21;;;;;;;8.52;4.25;;;17.10;94.90;;;;;;5052523;28;20060;-76
2021/08/31 01:30:48;;;;;;;13.40;6.25;;;17.10;94.90;;;;;;5052281;28;20036;-76
2021/08/31 01:33:14;;;;;;;13.50;5.90;;;17.10;94.90;;;;;;5052054;28;20021;-76
2021/08/31 01:35:39;;;;;;;11.23;6.53;;;17.20;94.90;;;;;;5052001;28;20027;-76
2021/08/31 01:38:05;;;;;;;10.82;5.80;;;17.10;94.90;;;;;;5051493;28;20035;-76
2021/08/31 01:40:31;;;;;;;11.63;6.45;;;17.20;95.00;;;;;;5052242;28;20029;-76
2021/08/31 01:42:58;;;;;;;11.05;6.45;;;17.10;95.00;;;;;;5049883;28;20053;-76
2021/08/31 01:45:23;;;;;;;11.40;6.15;;;17.10;95.00;;;;;;5052254;28;20082;-76
2021/08/31 01:47:49;;;;;;;11.15;6.18;;;17.10;95.00;;;;;;5051533;28;20024;-76
2021/08/31 01:50:15;;;;;;;13.23;6.40;;;17.10;95.00;;;;;;5051561;28;20029;-76
2021/08/31 01:52:40;;;;;;;11.80;6.50;;;17.10;95.10;;;;;;5050433;28;20111;-76
2021/08/31 01:55:07;;;;;;;12.30;5.80;;;17.00;95.10;;;;;;5049837;28;20027;-75
2021/08/31 01:57:34;;;;;;;11.35;5.70;;;17.00;95.20;;;;;;5051591;28;20020;-76
2021/08/31 02:00:00;;;;;;;15.77;6.55;;;17.00;95.20;;;;;;5050763;28;20040;-76
2021/08/31 02:02:25;;;;;;;12.50;6.65;;;16.90;95.20;;;;;;5051830;28;20080;-76
2021/08/31 02:04:51;;;;;;;10.18;5.80;;;16.90;95.20;;;;;;5050961;28;20045;-73
2021/08/31 02:07:17;;;;;;;12.10;6.60;;;16.90;95.30;;;;;;5051517;28;20025;-75
2021/08/31 02:09:42;;;;;;;11.43;6.05;;;16.90;95.30;;;;;;5050527;28;20162;-75
2021/08/31 02:12:08;;;;;;;12.18;5.68;;;16.90;95.30;;;;;;5051381;28;20139;-75
2021/08/31 02:14:34;;;;;;;12.93;5.80;;;16.90;95.30;;;;;;5051688;28;20520;-75
2021/08/31 02:17:00;;;;;;;9.68;5.40;;;16.90;95.30;;;;;;5051386;28;20057;-75
2021/08/31 02:19:25;;;;;;;8.73;5.10;;;16.90;95.30;;;;;;5050182;28;20442;-76
2021/08/31 02:21:51;;;;;;;13.63;6.80;;;16.90;95.30;;;;;;5051406;28;20405;-76
2021/08/31 02:24:17;;;;;;;9.10;4.90;;;16.90;95.30;;;;;;5050389;28;20051;-76
2021/08/31 02:26:43;;;;;;;10.63;5.97;;;16.90;95.30;;;;;;5051581;28;20431;-76
2021/08/31 02:29:08;;;;;;;8.10;5.05;;;16.90;95.30;;;;;;5050917;28;20031;-75
2021/08/31 02:31:34;;;;;;;12.57;6.03;;;16.90;95.30;;;;;;5051150;28;20025;-76
2021/08/31 02:34:00;;;;;;;8.93;4.78;;;16.80;95.30;;;;;;5051016;28;20031;-76
2021/08/31 02:36:25;;;;;;;10.65;5.05;;;16.90;95.30;;;;;;5051554;28;20025;-76
2021/08/31 02:38:51;;;;;;;12.52;5.15;;;16.90;95.40;;;;;;5051419;28;20017;-75
2021/08/31 02:41:17;;;;;;;10.63;5.88;;;16.80;95.40;;;;;;5050609;28;20497;-76
2021/08/31 02:43:43;;;;;;;11.27;5.78;;;16.80;95.40;;;;;;5049807;28;20037;-76
2021/08/31 02:46:08;;;;;;;12.00;5.65;;;16.80;95.30;;;;;;5052453;28;20051;-76
2021/08/31 02:48:34;;;;;;;10.48;5.07;;;16.90;95.40;;;;;;5053974;28;20112;-76
2021/08/31 02:51:00;;;;;;;10.65;5.25;;;16.90;95.40;;;;;;5054321;28;20024;-75
2021/08/31 02:53:25;;;;;;;10.55;5.03;;;16.90;95.40;;;;;;5055325;28;20025;-76
2021/08/31 02:55:51;;;;;;;6.80;3.47;;;16.80;95.40;;;;;;5055094;28;20022;-76
2021/08/31 02:58:16;;;;;;;8.02;4.82;;;16.80;95.40;;;;;;5054093;28;20028;-76
2021/08/31 03:00:42;;;;;;;10.95;4.93;;;16.80;95.40;;;;;;5054627;28;20112;-74
2021/08/31 03:03:09;;;;;;;14.23;5.63;;;16.80;95.40;;;;;;5054384;28;20103;-74
2021/08/31 03:05:36;;;;;;;10.70;5.22;;;16.80;95.50;;;;;;5054763;28;20031;-76
2021/08/31 03:08:02;;;;;;;12.00;4.80;;;16.80;95.50;;;;;;5054229;28;20104;-77
2021/08/31 03:10:27;;;;;;;8.93;3.63;;;16.80;95.50;;;;;;5053499;28;20461;-78
2021/08/31 03:12:53;;;;;;;9.45;4.50;;;16.80;95.40;;;;;;5054751;28;20029;-78
2021/08/31 03:15:19;;;;;;;11.55;5.53;;;16.80;95.40;;;;;;5052749;28;20021;-78
2021/08/31 03:17:45;;;;;;;11.38;4.72;;;16.80;95.40;;;;;;5054311;28;20075;-78
2021/08/31 03:20:11;;;;;;;11.82;5.18;;;16.80;95.40;;;;;;5053882;28;20074;-78
2021/08/31 03:22:37;;;;;;;12.77;5.78;;;16.80;95.40;;;;;;5054049;28;20052;-78
2021/08/31 03:25:03;;;;;;;9.82;5.00;;;16.90;95.40;;;;;;5053220;28;20051;-78
2021/08/31 03:27:29;;;;;;;12.52;5.18;;;16.90;95.40;;;;;;5054476;28;20029;-75
2021/08/31 03:29:55;;;;;;;13.32;5.55;;;16.90;95.30;;;;;;5054496;28;20025;-76
2021/08/31 03:32:20;;;;;;;10.63;5.72;;;17.00;95.30;;;;;;5053423;28;20072;-76
2021/08/31 03:34:46;;;;;;;11.50;5.15;;;17.00;95.30;;;;;;5054033;28;20033;-76
2021/08/31 03:37:12;;;;;;;12.23;5.88;;;17.00;95.20;;;;;;5052397;28;20021;-76
2021/08/31 03:39:37;;;;;;;13.43;5.43;;;17.00;95.20;;;;;;5052810;28;20082;-76
2021/08/31 03:42:04;;;;;;;12.48;5.72;;;17.00;95.30;;;;;;5053133;28;20044;-80
2021/08/31 03:44:30;;;;;;;14.30;5.28;;;17.00;95.30;;;;;;5051345;28;20025;-81
2021/08/31 03:46:55;;;;;;;8.70;4.47;;;17.00;95.30;;;;;;5051060;28;20461;-82
2021/08/31 03:49:21;;;;;;;11.20;4.40;;;17.00;95.30;;;;;;5050413;28;20464;-84
2021/08/31 03:51:46;;;;;;;11.18;5.07;;;17.00;95.30;;;;;;5050708;28;20036;-80
2021/08/31 03:54:12;;;;;;;9.43;4.85;;;16.90;95.30;;;;;;5051233;28;20031;-85
2021/08/31 03:56:38;;;;;;;7.75;4.57;;;17.00;95.30;;;;;;5049852;28;20512;-83
2021/08/31 03:59:03;;;;;;;8.35;4.53;;;17.00;95.30;;;;;;5050601;28;20365;-84
2021/08/31 04:01:29;;;;;;;8.07;4.68;;;17.00;95.30;;;;;;5050893;28;20040;-81
2021/08/31 04:03:55;;;;;;;10.27;4.97;;;17.00;95.20;;;;;;5050470;28;20021;-81
2021/08/31 04:06:21;;;;;;;14.05;5.28;;;17.10;95.20;;;;;;5051336;28;20033;-82
2021/08/31 04:08:47;;;;;;;9.38;4.32;;;17.10;95.20;;;;;;5050948;28;20032;-84
2021/08/31 04:11:12;;;;;;;9.73;4.18;;;17.10;95.20;;;;;;5049794;28;20039;-83
2021/08/31 04:13:38;;;;;;;8.90;4.18;;;17.10;95.20;;;;;;5050360;28;20397;-83
2021/08/31 04:16:04;;;;;;;11.07;5.22;;;17.10;95.10;;;;;;5049751;28;20457;-84
2021/08/31 04:18:29;;;;;;;10.15;4.85;;;17.10;95.40;;;;;;5051665;28;20025;-84
2021/08/31 04:20:55;;;;;;;11.13;4.35;;;17.10;95.20;;;;;;5051470;28;20577;-84
2021/08/31 04:23:20;;;;;;;7.88;4.03;;;17.10;95.20;;;;;;5049330;28;20104;-84
2021/08/31 04:25:46;;;;;;;9.27;4.40;;;17.10;95.20;;;;;;5050139;28;20059;-84
2021/08/31 04:28:12;;;;;;;6.28;2.90;;;17.10;95.30;;;;;;5049686;28;20388;-83
2021/08/31 04:30:37;;;;;;;9.88;4.30;;;17.10;95.60;;;;;;5049995;28;20170;-84
2021/08/31 04:33:03;;;;;;;9.93;4.13;;;17.10;95.30;;;;;;5051049;28;20167;-84
2021/08/31 04:35:29;;;;;;;8.75;4.10;;;17.20;95.30;;;;;;5049460;28;20036;-75
2021/08/31 04:37:54;;;;;;;9.40;3.92;;;17.20;95.20;;;;;;5051912;28;20021;-75
2021/08/31 04:40:20;;;;;;;9.30;3.05;;;17.20;95.20;;;;;;5052406;28;20799;-73
2021/08/31 04:42:46;;;;;;;11.63;4.22;;;17.20;95.20;;;;;;5053062;28;20045;-73
2021/08/31 04:45:12;;;;;;;5.88;3.50;;;17.20;95.10;;;;;;5052416;28;20100;-73
2021/08/31 04:47:37;;;;;;;5.72;3.35;;;17.20;95.10;;;;;;5053037;28;20079;-75
2021/08/31 04:50:04;;;;;;;7.68;4.00;;;17.20;95.10;;;;;;5052281;28;20025;-73
2021/08/31 04:52:30;;;;;;;7.20;3.05;;;17.20;95.10;;;;;;5052614;28;20432;-73
2021/08/31 04:54:56;;;;;;;7.63;3.33;;;17.20;95.10;;;;;;5052804;28;20029;-73
2021/08/31 04:57:22;;;;;;;8.07;3.33;;;17.20;95.10;;;;;;5051641;28;20602;-73
2021/08/31 04:59:48;;;;;;;9.73;3.97;;;17.20;95.20;;;;;;5052630;28;20025;-73
2021/08/31 05:02:14;;;;;;;9.82;3.90;;;17.20;95.10;;;;;;5051946;28;20028;-73
2021/08/31 05:04:39;;;;;;;8.90;3.28;;;17.20;95.10;;;;;;5051515;28;20021;-73
2021/08/31 05:07:07;;;;;;;9.32;3.28;;;17.20;95.20;;;;;;5050724;28;20025;-73
2021/08/31 05:09:32;;;;;;;7.57;3.88;;;17.20;95.10;;;;;;5051350;28;20381;-74
2021/08/31 05:11:58;;;;;;;8.05;3.50;;;17.20;95.00;;;;;;5052643;28;20032;-74
2021/08/31 05:14:24;;;;;;;7.72;3.00;;;17.30;95.00;;;;;;5051437;28;20028;-74
2021/08/31 05:16:49;;;;;;;8.88;3.17;;;17.30;95.00;;;;;;5052374;28;20033;-74
2021/08/31 05:19:15;;;;;;;8.68;3.75;;;17.30;94.90;;;;;;5051738;28;20032;-74
2021/08/31 05:21:43;;;;;;;6.55;3.20;;;17.40;94.90;;;;;;5051909;28;20436;-74
2021/08/31 05:24:09;;;;;;;16.55;8.32;;;17.30;94.90;;;;;;5050359;28;20156;-74
2021/08/31 05:26:34;;;;;;;8.55;4.68;;;17.40;94.80;;;;;;5052076;28;20505;-74
2021/08/31 05:29:00;;;;;;;7.30;3.72;;;17.40;94.80;;;;;;5051957;28;20174;-74
2021/08/31 05:31:26;;;;;;;9.80;3.85;;;17.40;94.80;;;;;;5051516;28;20021;-74
2021/08/31 05:33:51;;;;;;;12.55;3.80;;;17.50;94.80;;;;;;5051850;28;20029;-74
2021/08/31 05:36:17;;;;;;;7.75;3.50;;;17.40;94.70;;;;;;5051515;28;20063;-74
2021/08/31 05:38:42;;;;;;;8.55;3.35;;;17.50;94.70;;;;;;5052461;28;20461;-74
2021/08/31 05:41:08;;;;;;;6.18;2.75;;;17.50;94.70;;;;;;5050727;28;20040;-73
2021/08/31 05:43:34;;;;;;;8.27;3.22;;;17.50;94.70;;;;;;5051630;28;20051;-73
2021/08/31 05:45:59;;;;;;;8.95;3.15;;;17.50;94.60;;;;;;5051910;28;20047;-73
2021/08/31 05:48:25;;;;;;;7.78;3.42;;;17.60;94.60;;;;;;5051444;28;20510;-74
2021/08/31 05:50:50;;;;;;;7.80;3.50;;;17.60;94.60;;;;;;5051533;28;20029;-73
2021/08/31 05:53:16;;;;;;;9.80;4.28;;;17.60;94.50;;;;;;5051246;28;20471;-74
2021/08/31 05:55:42;;;;;;;5.43;3.13;;;17.60;94.50;;;;;;5051683;28;20479;-74
2021/08/31 05:58:08;;;;;;;6.57;3.63;;;17.60;94.50;;;;;;5051027;28;20025;-73
2021/08/31 06:00:33;;;;;;;8.18;3.20;;;17.60;94.50;;;;;;5051929;28;20354;-74
2021/08/31 06:02:59;;;;;;;9.82;3.30;;;17.70;94.50;;;;;;5051988;28;20112;-74
2021/08/31 06:05:25;;;;;;;7.82;2.97;;;17.70;94.40;;;;;;5050760;28;20021;-74
2021/08/31 06:07:50;;;;;;;7.88;3.38;;;17.70;94.40;;;;;;5051433;28;20429;-74
2021/08/31 06:10:18;;;;;;;9.73;3.55;;;17.70;94.40;;;;;;5049711;28;20025;-75
2021/08/31 06:12:43;;;;;;;8.80;3.55;;;17.70;94.40;;;;;;5051776;28;20060;-74
2021/08/31 06:15:10;;;;;;;10.90;4.15;;;17.70;94.40;;;;;;5050744;28;20025;-76
2021/08/31 06:17:37;;;;;;;12.68;4.00;;;17.70;94.30;;;;;;5051355;28;20025;-74
2021/08/31 06:20:06;;;;;;;6.85;3.38;;;17.70;94.30;;;;;;5050183;28;20120;-74
2021/08/31 06:22:31;;;;;;;9.75;3.70;;;17.80;94.30;;;;;;5054609;28;20028;-74
2021/08/31 06:24:57;;;;;;;7.35;3.17;;;17.80;94.20;;;;;;5055373;28;20029;-74
2021/08/31 06:27:23;;;;;;;7.88;3.38;;;17.80;94.20;;;;;;5054685;28;20032;-75
2021/08/31 06:29:48;;;;;;;10.40;3.72;;;17.80;94.20;;;;;;5055188;28;20476;-75
2021/08/31 06:32:14;;;;;;;7.20;3.30;;;17.80;94.20;;;;;;5054610;28;20042;-74
2021/08/31 06:34:39;;;;;;;7.45;4.03;;;17.80;94.20;;;;;;5055611;28;20074;-74
2021/08/31 06:37:05;;;;;;;8.80;2.90;;;17.80;94.20;;;;;;5054077;28;20021;-74
2021/08/31 06:39:31;;;;;;;4.65;2.60;;;17.80;94.20;;;;;;5054415;28;20501;-74
2021/08/31 06:41:56;;;;;;;7.63;3.30;;;17.80;94.20;;;;;;5055241;28;20056;-74
2021/08/31 06:44:22;;;;;;;9.70;4.38;;;17.80;94.20;;;;;;5054577;28;20025;-74
2021/08/31 06:46:47;;;;;;;10.68;4.10;;;17.80;94.20;;;;;;5055407;28;20028;-75
2021/08/31 06:49:13;;;;;;;9.90;3.35;;;17.80;94.20;;;;;;5053264;28;20021;-75
2021/08/31 06:51:39;;;;;;;11.07;3.65;;;17.80;94.20;;;;;;5054953;28;20040;-75
2021/08/31 06:54:05;;;;;;;9.40;3.70;;;17.90;94.20;;;;;;5055089;28;20100;-75
2021/08/31 06:56:31;;;;;;;8.63;2.67;;;17.90;94.10;;;;;;5054355;28;20111;-73
2021/08/31 06:58:56;;;;;;;7.82;3.78;;;17.90;94.10;;;;;;5055122;28;20017;-74
2021/08/31 07:01:22;;;;;;;8.05;3.65;;;17.90;94.00;;;;;;5053921;28;20114;-74
2021/08/31 07:03:48;;;;;;;7.82;3.80;;;18.00;94.00;;;;;;5054881;28;20021;-74
2021/08/31 07:06:13;;;;;;;6.88;3.33;;;18.00;94.00;;;;;;5053935;28;20032;-74
2021/08/31 07:08:39;;;;;;;8.45;3.67;;;18.00;93.90;;;;;;5053441;28;20481;-75
2021/08/31 07:11:05;;;;;;;7.10;3.53;;;18.10;93.90;;;;;;5053376;28;20527;-74
2021/08/31 07:13:30;;;;;;;9.98;3.92;;;18.10;93.90;;;;;;5053973;28;20479;-75
2021/08/31 07:15:56;;;;;;;10.85;4.30;;;18.20;93.80;;;;;;5054698;28;20021;-75
2021/08/31 07:18:22;;;;;;;9.82;3.80;;;18.20;93.80;;;;;;5053634;28;20025;-75
2021/08/31 07:20:47;;;;;;;12.18;3.95;;;18.30;93.70;;;;;;5053194;28;20082;-75
2021/08/31 07:23:14;;;;;;;9.05;4.13;;;18.30;93.60;;;;;;5054179;28;20023;-75
2021/08/31 07:25:43;;;;;;;7.95;3.65;;;18.40;93.60;;;;;;5054397;28;20040;-75
2021/08/31 07:28:12;;;;;;;12.25;3.75;;;18.40;93.50;;;;;;5054477;28;20108;-75
2021/08/31 07:30:38;;;;;;;8.27;3.80;;;18.40;93.50;;;;;;5054634;28;20029;-75
2021/08/31 07:33:06;;;;;;;8.88;3.13;;;18.40;93.40;;;;;;5054702;28;20101;-74
2021/08/31 07:35:32;;;;;;;8.18;3.65;;;18.40;93.40;;;;;;5052849;28;20024;-75
2021/08/31 07:37:58;;;;;;;7.82;3.78;;;18.40;93.30;;;;;;5054007;28;20090;-74
2021/08/31 07:40:24;;;;;;;5.25;2.83;;;18.40;93.30;;;;;;5052234;28;20535;-74
2021/08/31 07:42:52;;;;;;;7.30;3.25;;;18.50;93.30;;;;;;5053761;28;20130;-74
2021/08/31 07:45:17;;;;;;;7.35;3.08;;;18.50;93.30;;;;;;5053602;28;20024;-74
2021/08/31 07:47:43;;;;;;;6.55;3.17;;;18.50;93.20;;;;;;5054184;28;20029;-74
2021/08/31 07:50:09;;;;;;;9.35;3.17;;;18.50;93.20;;;;;;5054048;28;20025;-74
2021/08/31 07:52:35;;;;;;;4.93;2.78;;;18.60;93.20;;;;;;5053380;28;20025;-74
2021/08/31 07:55:03;;;;;;;11.10;3.90;;;18.60;93.20;;;;;;5054071;28;20124;-75
2021/08/31 07:57:29;;;;;;;8.07;3.00;;;18.60;93.20;;;;;;5053445;28;20017;-76
2021/08/31 07:59:55;;;;;;;6.30;3.13;;;18.60;93.10;;;;;;5053501;28;20071;-73
2021/08/31 08:02:20;;;;;;;6.60;2.85;;;18.60;93.10;;;;;;5053086;28;20021;-75
2021/08/31 08:04:46;;;;;;;8.55;3.60;;;18.70;93.00;;;;;;5054047;28;20027;-74
2021/08/31 08:07:12;;;;;;;9.30;3.17;;;18.70;92.90;;;;;;5053685;28;20025;-75
2021/08/31 08:09:38;;;;;;;5.68;2.80;;;18.70;92.90;;;;;;5053142;28;20397;-75
2021/08/31 08:12:03;;;;;;;5.78;2.97;;;18.80;92.90;;;;;;5054318;28;20017;-75
2021/08/31 08:14:30;;;;;;;12.20;4.63;;;18.90;92.80;;;;;;5055182;28;20017;-75
2021/08/31 08:16:55;;;;;;;22.35;11.40;;;18.90;93.00;;;;;;5055722;28;20331;-75
2021/08/31 08:19:21;;;;;;;11.02;5.80;;;19.00;92.70;;;;;;5054680;28;20028;-75
2021/08/31 08:21:47;;;;;;;13.10;6.10;;;19.00;92.70;;;;;;5053273;28;20051;-75
2021/08/31 08:24:12;;;;;;;10.18;4.43;;;19.00;92.60;;;;;;5054556;28;20029;-76
2021/08/31 08:26:38;;;;;;;10.82;4.05;;;19.00;92.60;;;;;;5053942;28;20437;-76
2021/08/31 08:29:05;;;;;;;12.00;3.80;;;19.00;92.60;;;;;;5054357;28;20029;-76
2021/08/31 08:31:33;;;;;;;10.93;3.67;;;19.00;92.60;;;;;;5053214;28;20389;-75
2021/08/31 08:34:00;;;;;;;10.07;3.30;;;19.10;92.60;;;;;;5053525;28;20104;-75
2021/08/31 08:36:26;;;;;;;7.63;2.75;;;19.10;92.50;;;;;;5052797;28;20013;-75
2021/08/31 08:38:52;;;;;;;5.85;3.00;;;19.10;92.40;;;;;;5053162;28;20051;-75
2021/08/31 08:41:18;;;;;;;5.95;3.22;;;19.20;92.30;;;;;;5052514;28;20465;-76
2021/08/31 08:43:44;;;;;;;8.35;3.08;;;19.30;92.30;;;;;;5052318;28;20025;-74
2021/08/31 08:46:10;;;;;;;6.50;2.80;;;19.40;92.10;;;;;;5053016;28;20458;-75
2021/08/31 08:48:35;;;;;;;7.10;3.05;;;19.40;91.90;;;;;;5051272;28;20078;-75
2021/08/31 08:51:03;;;;;;;7.00;3.08;;;19.40;91.90;;;;;;5051917;28;20449;-76
2021/08/31 08:53:31;;;;;;;9.85;2.80;;;19.40;91.80;;;;;;5052615;28;20028;-75
2021/08/31 08:55:59;;;;;;;6.35;2.78;;;19.40;91.80;;;;;;5051797;28;20031;-75
2021/08/31 08:58:25;;;;;;;5.30;2.53;;;19.40;91.80;;;;;;5052215;28;20167;-74
2021/08/31 09:00:57;;;;;;;5.75;3.00;;;19.50;91.70;;;;;;5053037;28;20104;-74
2021/08/31 09:03:24;;;;;;;7.95;3.15;;;19.60;91.60;;;;;;5051056;28;20497;-74
2021/08/31 09:06:11;;;;;;;7.40;2.75;;;19.60;91.50;;;;;;5053011;28;20048;-74
2021/08/31 09:08:43;;;;;;;6.43;3.05;;;19.60;91.30;;;;;;5052513;28;20099;-74
2021/08/31 09:11:30;;;;;;;6.68;2.92;;;19.70;91.10;;;;;;5052701;28;20033;-74
2021/08/31 09:14:27;;;;;;;4.85;2.75;;;19.70;90.90;;;;;;5053165;28;20031;-74
2021/08/31 09:17:06;;;;;;;7.47;2.67;;;19.70;90.80;;;;;;5052682;28;20385;-74
2021/08/31 09:19:39;;;;;;;5.65;2.88;;;19.80;90.70;;;;;;5052261;28;20029;-74
2021/08/31 09:22:15;;;;;;;5.32;2.67;;;19.70;90.70;;;;;;5052499;28;20024;-75
2021/08/31 09:24:55;;;;;;;5.25;2.63;;;19.70;90.60;;;;;;5054117;28;20270;-75
2021/08/31 09:27:37;;;;;;;5.30;2.72;;;19.70;90.60;;;;;;5053203;28;20108;-76
2021/08/31 09:30:26;;;;;;;6.78;2.80;;;19.80;90.50;;;;;;5052023;28;20020;-76
2021/08/31 09:33:08;;;;;;;3.85;2.22;;;19.90;90.20;;;;;;5053900;28;20025;-75
2021/08/31 09:35:34;;;;;;;7.50;3.15;;;19.80;90.20;;;;;;5052856;28;20031;-77
2021/08/31 09:38:03;;;;;;;4.45;2.63;;;19.70;90.30;;;;;;5052421;28;20029;-76
2021/08/31 09:40:30;;;;;;;8.05;2.67;;;19.60;90.40;;;;;;5051732;28;20055;-74
2021/08/31 09:43:04;;;;;;;6.25;2.20;;;19.50;90.50;;;;;;5051868;28;20045;-74
2021/08/31 09:45:33;;;;;;;5.32;2.38;;;19.40;90.60;;;;;;5051773;28;20109;-74
2021/08/31 09:48:00;;;;;;;7.10;2.90;;;19.40;90.50;;;;;;5054515;28;20036;-75
2021/08/31 09:50:53;;;;;;;4.18;2.28;;;19.40;90.50;;;;;;5054208;28;20036;-75
2021/08/31 09:53:25;;;;;;;4.72;2.63;;;19.50;90.30;;;;;;5051470;28;20044;-74
2021/08/31 09:56:03;;;;;;;5.28;2.97;;;19.60;90.10;;;;;;5053555;28;20017;-75
2021/08/31 09:58:30;;;;;;;7.15;2.80;;;19.70;90.00;;;;;;5052742;28;20086;-76
2021/08/31 10:00:56;;;;;;;5.32;2.53;;;19.80;89.80;;;;;;5053284;28;20064;-75
2021/08/31 10:03:24;;;;;;;3.28;2.00;;;20.00;89.30;;;;;;5053006;28;20021;-76
2021/08/31 10:05:52;;;;;;;8.05;2.42;;;20.00;89.50;;;;;;5053296;28;20100;-75
2021/08/31 10:08:19;;;;;;;6.30;2.95;;;20.10;88.50;;;;;;5052106;28;20048;-75
2021/08/31 10:10:48;;;;;;;6.70;2.70;;;20.20;88.20;;;;;;5051340;28;20028;-75
2021/08/31 10:13:16;;;;;;;5.45;2.45;;;20.30;88.10;;;;;;5052137;28;20029;-75
2021/08/31 10:15:46;;;;;;;5.38;2.60;;;20.30;88.10;;;;;;5051548;28;20053;-74
2021/08/31 10:18:17;;;;;;;7.22;2.55;;;20.40;87.90;;;;;;5052153;28;20035;-75
2021/08/31 10:20:46;;;;;;;;;;;20.50;87.80;;;;;;5052961;28;20029;-75
2021/08/31 10:23:15;;;;;;;6.45;2.78;;;20.40;87.90;;;;;;5053940;28;20348;-75
2021/08/31 10:25:41;;;;;;;5.13;2.70;;;20.40;87.90;;;;;;5052653;28;20029;-75
2021/08/31 10:28:22;;;;;;;5.53;2.40;;;20.30;88.00;;;;;;5053384;28;20052;-75
2021/08/31 10:30:49;;;;;;;6.22;3.03;;;20.30;88.10;;;;;;5051607;28;20028;-75
2021/08/31 10:33:38;;;;;;;5.13;2.78;;;20.30;88.10;;;;;;5053210;28;20060;-75
2021/08/31 10:36:06;;;;;;;6.03;2.72;;;20.50;87.40;;;;;;5052798;28;20098;-73
2021/08/31 10:38:53;;;;;;;3.85;2.45;;;20.60;87.00;;;;;;5051846;28;20108;-75
2021/08/31 10:41:34;;;;;;;5.85;3.10;;;20.70;86.50;;;;;;5051702;28;20056;-76
2021/08/31 10:44:00;;;;;;;4.35;2.60;;;20.80;86.10;;;;;;5052505;28;20377;-75
2021/08/31 10:46:46;;;;;;;6.50;2.58;;;20.90;85.70;;;;;;5052424;28;20028;-74
2021/08/31 10:49:12;;;;;;;5.28;2.47;;;21.00;85.40;;;;;;5052340;28;20028;-75
2021/08/31 10:52:05;;;;;;;6.05;2.63;;;21.10;84.80;;;;;;5051904;28;20021;-75
2021/08/31 10:54:48;;;;;;;6.07;2.25;;;21.10;84.60;;;;;;5045263;28;20025;-76
2021/08/31 10:57:36;;;;;;;8.32;2.85;;;20.90;84.80;;;;;;5049968;28;20053;-75
2021/08/31 11:00:21;;;;;;;6.03;2.58;;;20.70;85.10;;;;;;5051299;28;20488;-75
2021/08/31 11:02:47;;;;;;;5.32;2.30;;;20.60;85.60;;;;;;5051034;28;20045;-75
2021/08/31 11:05:22;;;;;;;4.00;1.90;;;20.60;85.90;;;;;;5051516;28;20037;-76
2021/08/31 11:08:13;;;;;;;4.95;2.35;;;20.70;85.80;;;;;;5053011;28;20290;-76
2021/08/31 11:10:44;;;;;;;4.53;2.10;;;20.90;85.40;;;;;;5054326;28;20108;-74
2021/08/31 11:13:25;;;;;;;3.83;1.73;;;21.00;85.60;;;;;;5055185;28;20101;-76
2021/08/31 11:15:55;;;;;;;4.95;1.85;;;21.00;84.60;;;;;;5052898;28;20423;-76
2021/08/31 11:18:21;;;;;;;5.57;2.75;;;21.00;84.40;;;;;;5053643;28;20028;-76
2021/08/31 11:20:47;;;;;;;5.90;2.30;;;21.10;84.10;;;;;;5054095;28;20127;-76
2021/08/31 11:23:19;;;;;;;4.28;1.92;;;21.10;83.60;;;;;;5054733;28;20029;-75
2021/08/31 11:25:47;;;;;;;4.65;2.10;;;21.30;83.40;;;;;;5054469;28;20021;-75
2021/08/31 11:28:16;;;;;;;6.18;2.50;;;21.40;82.90;;;;;;5054283;28;20043;-76
2021/08/31 11:30:52;;;;;;;6.15;2.33;;;21.60;82.40;;;;;;5053996;28;20036;-75
2021/08/31 11:33:27;;;;;;;3.65;1.85;;;21.70;81.90;;;;;;5054587;28;20113;-76
2021/08/31 11:36:13;;;;;;;5.35;1.88;;;21.90;81.70;;;;;;5053922;28;20459;-76
2021/08/31 11:38:51;;;;;;;6.22;2.20;;;22.00;81.30;;;;;;5053616;28;20029;-76
2021/08/31 11:41:21;;;;;;;4.78;2.10;;;21.90;81.00;;;;;;5053923;28;20025;-75
2021/08/31 11:43:52;;;;;;;4.15;2.20;;;21.80;81.30;;;;;;5053620;28;20365;-75
2021/08/31 11:46:31;;;;;;;;;;;21.90;81.10;;;;;;5054703;28;20033;-76
2021/08/31 11:49:20;;;;;;;3.78;1.77;;;22.00;81.10;;;;;;5054065;28;19912;-76
2021/08/31 11:51:54;;;;;;;6.82;2.25;;;22.30;80.60;;;;;;5052152;28;20385;-76
2021/08/31 11:54:21;;;;;;;5.70;1.95;;;22.40;79.50;;;;;;5053650;28;20017;-76
2021/08/31 11:56:52;;;;;;;4.25;2.08;;;22.50;80.00;;;;;;5053091;28;20481;-76
2021/08/31 11:59:39;;;;;;;6.05;2.03;;;22.40;79.00;;;;;;5052575;28;20412;-75
2021/08/31 12:02:30;;;;;;;5.00;1.88;;;22.30;79.10;;;;;;5053927;28;20056;-75
2021/08/31 12:04:56;;;;;;;7.75;2.75;;;22.20;79.20;;;;;;5051942;28;20369;-75
2021/08/31 12:07:36;;;;;;;3.38;1.75;;;22.20;79.60;;;;;;5054072;28;20126;-75
2021/08/31 12:10:09;;;;;;;4.75;1.92;;;22.30;79.20;;;;;;5052488;28;20107;-75
2021/08/31 12:12:42;;;;;;;5.03;2.30;;;22.50;78.40;;;;;;5051731;28;20029;-76
2021/08/31 12:15:09;;;;;;;3.33;1.85;;;22.60;78.30;;;;;;5053678;28;20076;-75
2021/08/31 12:17:45;;;;;;;3.80;2.13;;;22.60;78.10;;;;;;5052694;28;20028;-76
2021/08/31 12:20:23;;;;;;;5.20;1.85;;;22.60;77.80;;;;;;5052869;28;20025;-76
2021/08/31 12:22:50;;;;;;;3.85;1.98;;;22.60;77.80;;;;;;5052889;28;20071;-76
2021/08/31 12:25:18;;;;;;;4.15;2.13;;;22.60;77.60;;;;;;5053483;28;20017;-75
2021/08/31 12:27:49;;;;;;;5.82;2.20;;;22.50;77.70;;;;;;5052891;28;20024;-75
2021/08/31 12:30:17;;;;;;;5.60;2.63;;;22.40;77.60;;;;;;5055846;28;20028;-75
2021/08/31 12:32:53;;;;;;;4.05;1.73;;;22.40;77.90;;;;;;5052715;28;20413;-76
2021/08/31 12:35:29;;;;;;;4.70;1.95;;;22.40;77.70;;;;;;5053305;28;20507;-75
2021/08/31 12:38:17;;;;;;;3.92;2.10;;;22.40;77.20;;;;;;5052610;28;20040;-76
2021/08/31 12:41:14;;;;;;;4.45;2.08;;;22.50;76.60;;;;;;5051200;28;20036;-75
2021/08/31 12:43:45;;;;;;;3.17;1.83;;;22.70;76.30;;;;;;5051859;28;20045;-75
2021/08/31 12:46:23;;;;;;;7.65;2.85;;;22.80;75.60;;;;;;5053056;28;20101;-75
2021/08/31 12:48:50;;;;;;;5.43;2.53;;;22.80;75.50;;;;;;5052200;28;20025;-75